createdAt,value
2023-03-06T00:01:11.451Z,91544.19
2023-03-06T00:03:40.172Z,91543.03
2023-03-06T00:06:09.115Z,91540.38
2023-03-06T00:08:37.630Z,91535.34
2023-03-06T00:11:06.481Z,91544.31
2023-03-06T00:13:36.314Z,91536.72
2023-03-06T00:16:05.552Z,91530.44
2023-03-06T00:18:34.082Z,91528.50
2023-03-06T00:21:02.553Z,91528.59
2023-03-06T00:23:30.997Z,91514.69
2023-03-06T00:25:59.666Z,91520.84
2023-03-06T00:28:30.982Z,91507.28
2023-03-06T00:31:01.578Z,91505.59
2023-03-06T00:33:30.050Z,91500.34
2023-03-06T00:35:58.586Z,91495.78
2023-03-06T00:38:28.640Z,91496.16
2023-03-06T00:40:57.047Z,91488.81
2023-03-06T00:43:25.482Z,91489.75
2023-03-06T00:45:53.976Z,91477.78
2023-03-06T00:48:24.047Z,91484.28
2023-03-06T00:50:52.471Z,91476.03
2023-03-06T00:53:20.902Z,91477.38
2023-03-06T00:55:49.379Z,91478.63
2023-03-06T00:58:17.837Z,91477.16
2023-03-06T01:00:46.689Z,91484.16
2023-03-06T01:03:15.301Z,91482.28
2023-03-06T01:05:45.422Z,91481.88
2023-03-06T01:08:13.913Z,91476.06
2023-03-06T01:10:42.570Z,91470.06
2023-03-06T01:13:11.135Z,91464.88
2023-03-06T01:15:39.859Z,91463.47
2023-03-06T01:18:09.495Z,91463.88
2023-03-06T01:20:38.314Z,91466.75
2023-03-06T01:23:08.389Z,91459.50
2023-03-06T01:25:37.019Z,91448.88
2023-03-06T01:28:05.832Z,91451.72
2023-03-06T01:30:34.299Z,91451.25
2023-03-06T01:33:02.750Z,91450.06
2023-03-06T01:35:31.308Z,91447.81
2023-03-06T01:37:59.839Z,91441.75
2023-03-06T01:40:32.753Z,91443.69
2023-03-06T01:43:10.743Z,91435.66
2023-03-06T01:46:24.971Z,91433.56
2023-03-06T01:48:57.767Z,91420.63
2023-03-06T01:51:30.343Z,91416.44
2023-03-06T01:54:01.117Z,91414.72
2023-03-06T01:56:31.077Z,91412.00
2023-03-06T01:58:59.986Z,91405.06
2023-03-06T02:01:29.004Z,91387.78
2023-03-06T02:03:57.758Z,91399.47
2023-03-06T02:06:26.458Z,91393.97
2023-03-06T02:08:55.717Z,91389.19
2023-03-06T02:11:25.875Z,91390.72
2023-03-06T02:13:56.386Z,91387.53
2023-03-06T02:16:28.405Z,91395.50
2023-03-06T02:18:57.960Z,91390.34
2023-03-06T02:21:30.448Z,91390.97
2023-03-06T02:24:25.704Z,91391.19
2023-03-06T02:26:57.171Z,91378.44
2023-03-06T02:29:29.796Z,91382.44
2023-03-06T02:31:58.606Z,91382.28
2023-03-06T02:35:00.427Z,91380.97
2023-03-06T02:37:30.595Z,91377.63
2023-03-06T02:40:09.484Z,91375.16
2023-03-06T02:42:39.654Z,91375.16
2023-03-06T02:45:11.848Z,91373.28
2023-03-06T02:47:40.489Z,91373.63
2023-03-06T02:50:10.474Z,91363.22
2023-03-06T02:52:38.918Z,91354.84
2023-03-06T02:55:09.052Z,91360.91
2023-03-06T02:57:38.851Z,91357.72
2023-03-06T03:00:09.266Z,91354.84
2023-03-06T03:02:38.093Z,91354.53
2023-03-06T03:05:07.853Z,91347.94
2023-03-06T03:07:36.516Z,91347.97
2023-03-06T03:10:08.645Z,91343.09
2023-03-06T03:12:38.553Z,91336.88
2023-03-06T03:15:09.715Z,91336.19
2023-03-06T03:17:38.824Z,91336.38
2023-03-06T03:20:11.770Z,91343.81
2023-03-06T03:22:40.851Z,91339.06
2023-03-06T03:25:10.654Z,91335.47
2023-03-06T03:27:40.450Z,91338.78
2023-03-06T03:30:11.203Z,91335.53
2023-03-06T03:32:39.748Z,91338.44
2023-03-06T03:35:10.439Z,91337.84
2023-03-06T03:37:39.673Z,91330.75
2023-03-06T03:40:10.957Z,91332.59
2023-03-06T03:42:41.016Z,91330.47
2023-03-06T03:45:10.604Z,91317.91
2023-03-06T03:47:39.103Z,91322.44
2023-03-06T03:50:09.317Z,91306.41
2023-03-06T03:52:37.996Z,91309.72
2023-03-06T03:55:08.155Z,91306.13
2023-03-06T03:57:36.602Z,91308.00
2023-03-06T04:00:08.205Z,91302.56
2023-03-06T04:02:36.871Z,91299.47
2023-03-06T04:05:06.214Z,91295.44
2023-03-06T04:07:34.690Z,91294.22
2023-03-06T04:10:03.150Z,91295.78
2023-03-06T04:12:31.630Z,91301.06
2023-03-06T04:15:00.159Z,91297.38
2023-03-06T04:17:29.985Z,91292.72
2023-03-06T04:19:58.616Z,91302.63
2023-03-06T04:22:27.108Z,91304.88
2023-03-06T04:24:55.660Z,91305.22
2023-03-06T04:27:24.143Z,91295.22
2023-03-06T04:29:56.244Z,91300.75
2023-03-06T04:32:25.122Z,91302.34
2023-03-06T04:34:54.996Z,91310.00
2023-03-06T04:37:26.724Z,91307.53
2023-03-06T04:39:55.643Z,91293.38
2023-03-06T04:42:24.951Z,91294.84
2023-03-06T04:44:53.800Z,91295.22
2023-03-06T04:47:22.285Z,91294.59
2023-03-06T04:49:51.108Z,91303.84
2023-03-06T04:52:20.927Z,91294.44
2023-03-06T04:54:49.396Z,91292.78
2023-03-06T04:57:17.866Z,91299.00
2023-03-06T04:59:46.321Z,91292.59
2023-03-06T05:02:14.903Z,91289.75
2023-03-06T05:04:43.566Z,91290.53
2023-03-06T05:07:12.457Z,91304.81
2023-03-06T05:09:42.241Z,91306.53
2023-03-06T05:12:10.695Z,91299.00
2023-03-06T05:14:39.379Z,91295.03
2023-03-06T05:17:08.177Z,91299.81
2023-03-06T05:19:36.663Z,91302.47
2023-03-06T05:22:05.231Z,91305.13
2023-03-06T05:24:33.708Z,91293.66
2023-03-06T05:27:03.760Z,91292.16
2023-03-06T05:29:32.512Z,91291.44
2023-03-06T05:32:01.243Z,91286.66
2023-03-06T05:34:29.874Z,91284.59
2023-03-06T05:36:58.566Z,91280.63
2023-03-06T05:39:29.559Z,91288.06
2023-03-06T05:41:58.214Z,91291.75
2023-03-06T05:44:33.443Z,91296.84
2023-03-06T05:47:02.935Z,91291.13
2023-03-06T05:49:35.238Z,91289.75
2023-03-06T05:52:06.455Z,91291.25
2023-03-06T05:54:37.902Z,91285.53
2023-03-06T05:57:07.134Z,91293.38
2023-03-06T05:59:37.012Z,91293.47
2023-03-06T06:02:05.663Z,91294.00
2023-03-06T06:04:34.270Z,91303.50
2023-03-06T06:07:03.076Z,91297.56
2023-03-06T06:09:31.762Z,91282.34
2023-03-06T06:12:03.696Z,91291.75
2023-03-06T06:14:36.285Z,91288.69
2023-03-06T06:17:05.631Z,91284.84
2023-03-06T06:19:34.352Z,91284.50
2023-03-06T06:22:03.878Z,91283.75
2023-03-06T06:24:33.674Z,91288.84
2023-03-06T06:27:03.969Z,91281.75
2023-03-06T06:29:33.033Z,91289.28
2023-03-06T06:32:03.077Z,91289.16
2023-03-06T06:34:31.991Z,91287.28
2023-03-06T06:37:00.441Z,91295.13
2023-03-06T06:39:29.047Z,91298.91
2023-03-06T06:42:20.188Z,91293.84
2023-03-06T06:44:46.071Z,91294.25
2023-03-06T06:47:25.166Z,91299.66
2023-03-06T06:49:55.411Z,91295.94
2023-03-06T06:52:25.103Z,91302.69
2023-03-06T06:54:54.195Z,91306.16
2023-03-06T06:57:22.874Z,91302.13
2023-03-06T06:59:53.387Z,91304.47
2023-03-06T07:02:24.340Z,91305.97
2023-03-06T07:05:03.774Z,91309.03
2023-03-06T07:07:35.432Z,91311.22
2023-03-06T07:10:05.577Z,91305.84
2023-03-06T07:12:35.209Z,91314.25
2023-03-06T07:15:04.926Z,91312.75
2023-03-06T07:17:34.924Z,91320.28
2023-03-06T07:20:05.392Z,91322.09
2023-03-06T07:22:41.542Z,91319.50
2023-03-06T07:28:04.292Z,91329.44
2023-03-06T07:30:34.866Z,91334.53
2023-03-06T07:33:04.756Z,91327.34
2023-03-06T07:35:34.295Z,91326.72
2023-03-06T07:38:03.341Z,91329.28
2023-03-06T07:40:31.818Z,91327.84
2023-03-06T07:43:16.907Z,91335.72
2023-03-06T07:45:48.051Z,91330.75
2023-03-06T07:48:17.857Z,91332.34
2023-03-06T07:50:50.338Z,91334.66
2023-03-06T07:53:18.764Z,91334.28
2023-03-06T07:55:47.169Z,91343.63
2023-03-06T07:58:16.222Z,91340.72
2023-03-06T08:00:44.771Z,91340.84
2023-03-06T08:03:14.873Z,91342.50
2023-03-06T08:05:45.541Z,91355.06
2023-03-06T08:08:14.179Z,91357.13
2023-03-06T08:10:42.594Z,91358.97
2023-03-06T08:13:11.045Z,91355.22
2023-03-06T08:15:40.545Z,91353.00
2023-03-06T08:18:08.966Z,91346.28
2023-03-06T08:20:37.911Z,91357.31
2023-03-06T08:23:07.719Z,91350.06
2023-03-06T08:25:36.169Z,91351.00
2023-03-06T08:28:04.705Z,91346.06
2023-03-06T08:30:33.521Z,91350.63
2023-03-06T08:33:02.132Z,91343.06
2023-03-06T08:35:30.587Z,91349.88
2023-03-06T08:37:59.001Z,91350.94
2023-03-06T08:40:31.996Z,91353.66
2023-03-06T08:43:00.440Z,91351.53
2023-03-06T08:45:28.869Z,91352.66
2023-03-06T08:47:57.423Z,91356.72
2023-03-06T08:50:25.826Z,91353.28
2023-03-06T08:52:54.257Z,91367.13
2023-03-06T08:55:22.766Z,91355.72
2023-03-06T08:57:52.605Z,91355.66
2023-03-06T09:00:21.656Z,91363.56
2023-03-06T09:02:50.077Z,91359.72
2023-03-06T09:05:18.627Z,91364.16
2023-03-06T09:07:47.040Z,91357.88
2023-03-06T09:10:19.024Z,91360.53
2023-03-06T09:12:50.905Z,91365.75
2023-03-06T09:15:24.306Z,91368.09
2023-03-06T09:17:54.225Z,91367.88
2023-03-06T09:20:23.539Z,91362.63
2023-03-06T09:22:51.980Z,91368.81
2023-03-06T09:25:23.339Z,91371.16
2023-03-06T09:28:08.612Z,91379.31
2023-03-06T09:30:41.785Z,91384.63
2023-03-06T09:33:10.202Z,91374.63
2023-03-06T09:35:44.623Z,91376.50
2023-03-06T09:38:13.143Z,91382.91
2023-03-06T09:41:01.207Z,91379.88
2023-03-06T09:43:35.431Z,91384.06
2023-03-06T09:46:20.224Z,91383.81
2023-03-06T09:49:10.273Z,91376.78
2023-03-06T09:51:58.616Z,91383.06
2023-03-06T09:54:37.209Z,91385.09
2023-03-06T09:57:09.949Z,91387.41
2023-03-06T09:59:50.222Z,91392.28
2023-03-06T10:02:29.269Z,91391.88
2023-03-06T10:05:04.152Z,91397.00
2023-03-06T10:07:45.270Z,91389.63
2023-03-06T10:10:22.196Z,91379.38
2023-03-06T10:13:03.978Z,91388.91
2023-03-06T10:15:36.238Z,91383.66
2023-03-06T10:18:06.872Z,91382.94
2023-03-06T10:20:42.681Z,91395.19
2023-03-06T10:23:25.013Z,91390.47
2023-03-06T10:26:02.251Z,91382.63
2023-03-06T10:28:35.527Z,91374.53
2023-03-06T10:31:12.263Z,91375.34
2023-03-06T10:33:55.907Z,91384.03
2023-03-06T10:36:27.235Z,91375.97
2023-03-06T10:38:58.034Z,91379.78
2023-03-06T10:41:29.733Z,91371.97
2023-03-06T10:44:23.498Z,91374.13
2023-03-06T10:46:55.356Z,91371.59
2023-03-06T10:49:36.965Z,91368.47
2023-03-06T10:52:20.385Z,91369.97
2023-03-06T10:54:49.397Z,91376.56
2023-03-06T10:57:27.461Z,91377.03
2023-03-06T10:59:58.205Z,91382.03
2023-03-06T11:02:31.760Z,91376.66
2023-03-06T11:05:03.682Z,91380.56
2023-03-06T11:07:34.318Z,91377.31
2023-03-06T11:10:12.578Z,91367.22
2023-03-06T11:12:43.788Z,91376.53
2023-03-06T11:15:22.736Z,91373.78
2023-03-06T11:17:59.141Z,91371.50
2023-03-06T11:20:48.499Z,91358.81
2023-03-06T11:23:21.619Z,91352.06
2023-03-06T11:25:56.450Z,91359.56
2023-03-06T11:28:30.710Z,91351.16
2023-03-06T11:31:05.195Z,91359.72
2023-03-06T11:33:42.576Z,91358.25
2023-03-06T11:36:17.539Z,91351.84
2023-03-06T11:38:50.886Z,91348.41
2023-03-06T11:41:33.675Z,91348.47
2023-03-06T11:44:13.878Z,91354.13
2023-03-06T11:46:45.748Z,91341.53
2023-03-06T11:49:24.837Z,91334.19
2023-03-06T11:51:57.715Z,91345.75
2023-03-06T11:54:26.503Z,91343.84
2023-03-06T11:56:59.706Z,91335.94
2023-03-06T11:59:48.615Z,91338.69
2023-03-06T12:02:34.637Z,91331.91
2023-03-06T12:05:28.253Z,91330.19
2023-03-06T12:08:16.205Z,91332.50
2023-03-06T12:10:51.835Z,91330.56
2023-03-06T12:13:37.021Z,91334.44
2023-03-06T12:16:27.025Z,91324.88
2023-03-06T12:19:08.702Z,91326.34
2023-03-06T12:21:49.959Z,91325.63
2023-03-06T12:24:50.234Z,91328.44
2023-03-06T12:27:25.962Z,91333.81
2023-03-06T12:30:17.171Z,91329.31
2023-03-06T12:32:54.033Z,91319.94
2023-03-06T12:35:58.218Z,91323.44
2023-03-06T12:38:48.812Z,91323.97
2023-03-06T12:41:33.869Z,91320.13
2023-03-06T12:44:49.469Z,91324.22
2023-03-06T12:47:23.110Z,91320.88
2023-03-06T12:49:57.578Z,91318.19
2023-03-06T12:52:30.686Z,91318.44
2023-03-06T12:55:02.537Z,91308.38
2023-03-06T12:57:32.321Z,91312.97
2023-03-06T13:00:00.844Z,91311.84
2023-03-06T13:02:58.409Z,91313.09
2023-03-06T13:05:59.034Z,91309.56
2023-03-06T13:09:12.557Z,91316.03
2023-03-06T13:12:16.901Z,91311.53
2023-03-06T13:15:01.555Z,91304.72
2023-03-06T13:17:40.660Z,91311.69
2023-03-06T13:20:43.053Z,91309.31
2023-03-06T13:23:52.248Z,91313.13
2023-03-06T13:27:00.173Z,91301.06
2023-03-06T13:30:21.923Z,91305.41
2023-03-06T13:32:52.786Z,91305.03
2023-03-06T13:35:56.000Z,91302.00
2023-03-06T13:38:38.343Z,91293.38
2023-03-06T13:41:37.665Z,91295.94
2023-03-06T13:44:51.095Z,91297.19
2023-03-06T13:48:06.773Z,91293.09
2023-03-06T13:50:40.759Z,91277.47
2023-03-06T13:54:14.382Z,91279.63
2023-03-06T13:57:17.485Z,91281.66
2023-03-06T14:00:35.923Z,91277.47
2023-03-06T14:03:57.562Z,91284.66
2023-03-06T14:06:54.086Z,91282.13
2023-03-06T14:09:30.148Z,91295.75
2023-03-06T14:12:06.813Z,91299.91
2023-03-06T14:14:43.935Z,91298.69
2023-03-06T14:17:25.663Z,91296.38
2023-03-06T14:19:57.567Z,91302.69
2023-03-06T14:22:26.895Z,91304.84
2023-03-06T14:25:06.128Z,91293.94
2023-03-06T14:27:45.448Z,91297.72
2023-03-06T14:30:17.205Z,91296.66
2023-03-06T14:32:46.306Z,91294.72
2023-03-06T14:35:29.619Z,91296.22
2023-03-06T14:38:02.376Z,91299.94
2023-03-06T14:40:35.999Z,91301.75
2023-03-06T14:43:21.765Z,91300.19
2023-03-06T14:45:56.272Z,91305.19
2023-03-06T14:48:27.028Z,91290.00
2023-03-06T14:50:58.325Z,91295.56
2023-03-06T14:53:31.230Z,91292.69
2023-03-06T14:56:05.050Z,91293.81
2023-03-06T14:58:39.547Z,91280.56
2023-03-06T15:01:11.288Z,91281.22
2023-03-06T15:03:46.860Z,91294.25
2023-03-06T15:06:21.633Z,91292.88
2023-03-06T15:08:58.840Z,91299.44
2023-03-06T15:11:27.392Z,91289.19
2023-03-06T15:14:03.789Z,91291.59
2023-03-06T15:16:32.890Z,91289.75
2023-03-06T15:19:03.561Z,91282.44
2023-03-06T15:21:37.572Z,91273.22
2023-03-06T15:24:32.764Z,91271.09
2023-03-06T15:27:04.361Z,91267.78
2023-03-06T15:29:33.108Z,91272.19
2023-03-06T15:32:32.268Z,91270.34
2023-03-06T15:35:27.334Z,91261.66
2023-03-06T15:37:57.657Z,91263.53
2023-03-06T15:40:28.867Z,91258.47
2023-03-06T15:42:58.153Z,91265.22
2023-03-06T15:45:29.656Z,91270.25
2023-03-06T15:47:58.084Z,91268.69
2023-03-06T15:50:28.812Z,91267.59
2023-03-06T15:52:58.694Z,91261.50
2023-03-06T15:55:27.567Z,91268.72
2023-03-06T15:57:59.741Z,91258.06
2023-03-06T16:00:30.899Z,91265.66
2023-03-06T16:03:00.199Z,91263.31
2023-03-06T16:05:29.910Z,91269.34
2023-03-06T16:08:00.110Z,91256.84
2023-03-06T16:10:31.874Z,91254.94
2023-03-06T16:13:04.504Z,91261.13
2023-03-06T16:15:38.788Z,91258.91
2023-03-06T16:18:07.807Z,91244.16
2023-03-06T16:20:36.623Z,91266.31
2023-03-06T16:23:10.291Z,91261.66
2023-03-06T16:25:41.020Z,91258.31
2023-03-06T16:28:15.527Z,91272.69
2023-03-06T16:30:46.060Z,91265.22
2023-03-06T16:33:15.368Z,91265.38
2023-03-06T16:35:46.827Z,91268.50
2023-03-06T16:38:16.779Z,91277.19
2023-03-06T16:40:45.232Z,91265.03
2023-03-06T16:43:16.166Z,91276.09
2023-03-06T16:45:45.093Z,91273.78
2023-03-06T16:48:20.864Z,91272.63
2023-03-06T16:50:49.372Z,91274.09
2023-03-06T16:53:19.910Z,91275.19
2023-03-06T16:55:48.583Z,91275.94
2023-03-06T16:58:17.242Z,91277.47
2023-03-06T17:00:45.685Z,91282.38
2023-03-06T17:03:14.098Z,91288.06
2023-03-06T17:05:44.068Z,91292.19
2023-03-06T17:08:12.847Z,91298.59
2023-03-06T17:10:44.081Z,91295.56
2023-03-06T17:13:12.553Z,91297.09
2023-03-06T17:15:41.330Z,91301.56
2023-03-06T17:18:09.754Z,91300.78
2023-03-06T17:20:38.573Z,91300.69
2023-03-06T17:23:06.969Z,91294.66
2023-03-06T17:25:35.417Z,91293.69
2023-03-06T17:28:05.291Z,91296.88
2023-03-06T17:30:33.705Z,91303.94
2023-03-06T17:33:02.742Z,91303.47
2023-03-06T17:35:31.439Z,91296.50
2023-03-06T17:38:00.142Z,91293.78
2023-03-06T17:40:28.657Z,91298.25
2023-03-06T17:42:57.257Z,91296.31
2023-03-06T17:45:29.039Z,91293.88
2023-03-06T17:47:57.812Z,91299.44
2023-03-06T17:50:26.285Z,91304.38
2023-03-06T17:52:54.722Z,91314.22
2023-03-06T17:55:23.202Z,91303.25
2023-03-06T17:57:53.400Z,91309.25
2023-03-06T18:00:23.790Z,91305.06
2023-03-06T18:02:53.876Z,91313.81
2023-03-06T18:05:22.579Z,91310.09
2023-03-06T18:07:51.010Z,91317.81
2023-03-06T18:10:19.568Z,91310.34
2023-03-06T18:12:48.224Z,91314.94
2023-03-06T18:15:17.311Z,91320.06
2023-03-06T18:17:46.440Z,91311.16
2023-03-06T18:20:16.337Z,91311.94
2023-03-06T18:22:44.785Z,91315.50
2023-03-06T18:25:13.226Z,91315.75
2023-03-06T18:27:41.637Z,91318.63
2023-03-06T18:30:12.055Z,91315.66
2023-03-06T18:32:40.555Z,91317.31
2023-03-06T18:35:10.622Z,91324.34
2023-03-06T18:37:40.435Z,91321.47
2023-03-06T18:40:11.064Z,91329.38
2023-03-06T18:42:39.483Z,91324.75
2023-03-06T18:45:09.754Z,91327.19
2023-03-06T18:47:38.178Z,91332.91
2023-03-06T18:50:08.125Z,91333.63
2023-03-06T18:52:36.692Z,91331.28
2023-03-06T18:55:07.640Z,91329.34
2023-03-06T18:57:36.269Z,91331.28
2023-03-06T19:00:05.887Z,91335.78
2023-03-06T19:02:34.593Z,91334.72
2023-03-06T19:05:03.066Z,91329.03
2023-03-06T19:07:31.697Z,91329.38
2023-03-06T19:10:00.120Z,91325.66
2023-03-06T19:12:29.952Z,91324.13
2023-03-06T19:15:01.462Z,91323.66
2023-03-06T19:17:31.447Z,91322.94
2023-03-06T19:19:59.877Z,91318.44
2023-03-06T19:22:28.299Z,91328.41
2023-03-06T19:24:56.739Z,91324.75
2023-03-06T19:27:25.387Z,91315.59
2023-03-06T19:29:55.167Z,91321.78
2023-03-06T19:32:23.747Z,91325.50
2023-03-06T19:34:52.611Z,91315.00
2023-03-06T19:37:21.103Z,91323.03
2023-03-06T19:39:49.751Z,91321.78
2023-03-06T19:42:18.436Z,91322.44
2023-03-06T19:47:37.541Z,91320.78
2023-03-06T19:50:07.232Z,91323.97
2023-03-06T19:52:39.039Z,91317.91
2023-03-06T19:55:09.690Z,91314.78
2023-03-06T19:57:38.161Z,91320.19
2023-03-06T20:00:08.124Z,91309.84
2023-03-06T20:02:38.183Z,91316.06
2023-03-06T20:05:09.384Z,91306.81
2023-03-06T20:07:38.143Z,91305.66
2023-03-06T20:10:07.472Z,91310.97
2023-03-06T20:12:36.649Z,91312.50
2023-03-06T20:15:06.157Z,91308.72
2023-03-06T20:17:35.587Z,91306.94
2023-03-06T20:20:07.118Z,91302.13
2023-03-06T20:22:35.567Z,91308.16
2023-03-06T20:25:04.156Z,91304.22
2023-03-06T20:27:32.797Z,91298.88
2023-03-06T20:30:01.490Z,91305.78
2023-03-06T20:32:30.215Z,91298.03
2023-03-06T20:34:58.674Z,91301.06
2023-03-06T20:37:28.755Z,91308.72
2023-03-06T20:39:57.429Z,91298.00
2023-03-06T20:42:25.841Z,91305.25
2023-03-06T20:44:54.504Z,91302.53
2023-03-06T20:47:22.942Z,91304.13
2023-03-06T20:49:51.608Z,91305.97
2023-03-06T20:52:20.059Z,91310.50
2023-03-06T20:54:50.089Z,91307.91
2023-03-06T20:57:18.532Z,91312.03
2023-03-06T20:59:47.217Z,91308.06
2023-03-06T21:02:15.946Z,91302.44
2023-03-06T21:04:44.768Z,91298.03
2023-03-06T21:07:13.224Z,91294.78
2023-03-06T21:09:41.659Z,91291.75
2023-03-06T21:12:11.468Z,91299.53
2023-03-06T21:14:40.151Z,91296.31
2023-03-06T21:17:08.608Z,91293.03
2023-03-06T21:19:38.446Z,91289.63
2023-03-06T21:22:06.871Z,91291.81
2023-03-06T21:24:35.336Z,91289.59
2023-03-06T21:27:04.308Z,91293.44
2023-03-06T21:29:34.111Z,91291.41
2023-03-06T21:32:02.754Z,91293.19
2023-03-06T21:34:31.271Z,91285.69
2023-03-06T21:36:59.737Z,91277.03
2023-03-06T21:39:28.228Z,91287.38
2023-03-06T21:41:56.663Z,91291.72
2023-03-06T21:44:25.196Z,91292.88
2023-03-06T21:46:55.010Z,91284.13
2023-03-06T21:49:26.149Z,91290.41
2023-03-06T21:51:55.184Z,91286.41
2023-03-06T21:54:23.876Z,91284.63
2023-03-06T21:56:53.338Z,91287.00
2023-03-06T21:59:21.828Z,91277.38
2023-03-06T22:01:50.255Z,91275.94
2023-03-06T22:04:20.109Z,91276.72
2023-03-06T22:06:48.575Z,91269.72
2023-03-06T22:09:21.708Z,91269.56
2023-03-06T22:11:50.132Z,91264.09
2023-03-06T22:14:18.553Z,91259.66
2023-03-06T22:16:47.222Z,91263.44
2023-03-06T22:19:15.714Z,91256.94
2023-03-06T22:21:45.528Z,91264.41
2023-03-06T22:24:13.953Z,91254.72
2023-03-06T22:26:42.371Z,91257.56
2023-03-06T22:29:10.816Z,91263.69
2023-03-06T22:31:40.354Z,91262.56
2023-03-06T22:34:09.061Z,91259.25
2023-03-06T22:36:37.531Z,91265.03
2023-03-06T22:39:07.445Z,91254.50
2023-03-06T22:41:35.874Z,91255.72
2023-03-06T22:44:04.379Z,91241.13
2023-03-06T22:46:33.560Z,91243.75
2023-03-06T22:49:03.317Z,91251.53
2023-03-06T22:51:31.895Z,91256.66
2023-03-06T22:54:00.640Z,91237.34
2023-03-06T22:56:30.581Z,91250.69
2023-03-06T22:58:59.311Z,91245.81
2023-03-06T23:01:30.391Z,91245.41
2023-03-06T23:04:00.871Z,91249.09
2023-03-06T23:06:31.668Z,91249.91
2023-03-06T23:09:04.140Z,91236.63
2023-03-06T23:11:34.815Z,91239.97
2023-03-06T23:14:05.658Z,91239.38
2023-03-06T23:16:34.631Z,91246.03
2023-03-06T23:19:03.048Z,91234.59
2023-03-06T23:21:32.276Z,91233.63
2023-03-06T23:24:00.940Z,91237.53
2023-03-06T23:26:34.404Z,91235.41
2023-03-06T23:29:04.324Z,91238.41
2023-03-06T23:31:33.309Z,91231.59
2023-03-06T23:34:04.283Z,91238.88
2023-03-06T23:36:32.908Z,91227.94
2023-03-06T23:39:01.332Z,91237.75
2023-03-06T23:41:29.864Z,91233.03
2023-03-06T23:44:00.623Z,91233.03
2023-03-06T23:46:29.268Z,91228.06
2023-03-06T23:48:58.033Z,91235.88
2023-03-06T23:51:26.475Z,91230.97
2023-03-06T23:53:58.541Z,91228.81
2023-03-06T23:56:29.165Z,91223.44
2023-03-06T23:58:59.043Z,91233.47
